Long Island City, New York
Current Conditions -  °F | °C
As of 11:51 PM on Wednesday 17 Dec 2014 (Local Time) from KNYC Reporting Station
Overcast Overcast  
Wind Chill: 37°   Ceiling: 4100
Heat Index: 42°   Visibility: 10mi
Dew Point: 26°   Wind: 8mph
Humidity: 53%   Direction: 280°W
Pressure: 29.9"   Gusts: 18mph
Location:  40.74°N, 73.95°W
Report Text: KNYC 180451Z AUTO 28007G16KT 260V320 10SM OVC041 06/M03 A2990 RMK AO2 SLP117 T00561033 401220056 $
Loading
Personal Weather Stations






























Interactive Weather Map New forecast layout! Learn more

10-Day Weather Forecast

Advertisements
Track Severe Weather on mobile